createdAt,value
2024-02-16T00:02:04.591Z,86.42
2024-02-16T00:04:32.809Z,86.50
2024-02-16T00:07:00.821Z,86.63
2024-02-16T00:09:29.396Z,86.43
2024-02-16T00:11:58.753Z,86.50
2024-02-16T00:14:26.752Z,86.28
2024-02-16T00:16:54.732Z,86.48
2024-02-16T00:19:23.458Z,86.75
2024-02-16T00:21:53.123Z,86.56
2024-02-16T00:24:21.840Z,86.73
2024-02-16T00:26:50.853Z,86.42
2024-02-16T00:29:20.255Z,86.36
2024-02-16T00:31:48.105Z,86.48
2024-02-16T00:34:17.320Z,86.44
2024-02-16T00:36:45.556Z,86.41
2024-02-16T00:39:13.607Z,86.40
2024-02-16T00:41:41.625Z,86.67
2024-02-16T00:44:09.901Z,86.83
2024-02-16T00:46:40.914Z,86.59
2024-02-16T00:49:11.553Z,86.63
2024-02-16T00:51:42.551Z,86.85
2024-02-16T00:54:11.998Z,86.74
2024-02-16T00:56:40.051Z,86.41
2024-02-16T00:59:10.141Z,86.49
2024-02-16T01:01:38.454Z,86.62
2024-02-16T01:04:09.387Z,86.60
2024-02-16T01:06:37.365Z,86.88
2024-02-16T01:09:05.609Z,86.44
2024-02-16T01:11:33.465Z,86.47
2024-02-16T01:14:01.509Z,86.55
2024-02-16T01:16:29.828Z,86.51
2024-02-16T01:18:57.951Z,86.66
2024-02-16T01:21:27.936Z,86.53
2024-02-16T01:23:55.987Z,86.92
2024-02-16T01:26:23.960Z,86.77
2024-02-16T01:28:51.827Z,86.91
2024-02-16T01:31:19.692Z,86.89
2024-02-16T01:33:48.306Z,86.63
2024-02-16T01:36:16.249Z,86.48
2024-02-16T01:38:46.063Z,86.66
2024-02-16T01:41:16.287Z,86.77
2024-02-16T01:43:44.233Z,86.85
2024-02-16T01:46:12.203Z,86.58
2024-02-16T01:48:41.587Z,86.79
2024-02-16T01:51:12.014Z,86.78
2024-02-16T01:53:41.072Z,86.97
2024-02-16T01:56:11.080Z,86.56
2024-02-16T01:58:39.090Z,87.01
2024-02-16T02:01:08.259Z,86.69
2024-02-16T02:03:37.232Z,86.61
2024-02-16T02:06:05.313Z,86.67
2024-02-16T02:08:33.689Z,86.73
2024-02-16T02:11:01.668Z,86.90
2024-02-16T02:13:31.276Z,86.80
2024-02-16T02:16:00.888Z,86.84
2024-02-16T02:18:28.937Z,86.71
2024-02-16T02:20:56.946Z,86.58
2024-02-16T02:23:26.422Z,86.80
2024-02-16T02:25:54.568Z,86.77
2024-02-16T02:28:25.019Z,86.94
2024-02-16T02:30:54.734Z,86.84
2024-02-16T02:33:24.016Z,86.77
2024-02-16T02:35:52.462Z,86.78
2024-02-16T02:38:20.674Z,86.68
2024-02-16T02:40:49.876Z,86.86
2024-02-16T02:43:19.901Z,86.86
2024-02-16T02:45:47.831Z,86.76
2024-02-16T02:48:15.908Z,87.19
2024-02-16T02:50:44.548Z,86.84
2024-02-16T02:53:13.256Z,86.95
2024-02-16T02:55:41.063Z,86.79
2024-02-16T02:58:10.363Z,86.94
2024-02-16T03:00:38.441Z,86.73
2024-02-16T03:03:06.480Z,86.92
2024-02-16T03:05:34.425Z,86.91
2024-02-16T03:08:03.105Z,86.79
2024-02-16T03:10:36.171Z,87.17
2024-02-16T03:13:05.056Z,87.02
2024-02-16T03:15:34.652Z,87.14
2024-02-16T03:18:02.940Z,86.93
2024-02-16T03:20:31.897Z,87.16
2024-02-16T03:22:59.720Z,86.90
2024-02-16T03:25:27.726Z,86.78
2024-02-16T03:27:55.728Z,86.96
2024-02-16T03:30:23.974Z,86.72
2024-02-16T03:32:53.643Z,87.11
2024-02-16T03:35:21.561Z,86.99
2024-02-16T03:37:49.440Z,87.14
2024-02-16T03:40:18.099Z,86.88
2024-02-16T03:42:45.937Z,87.04
2024-02-16T03:45:13.892Z,87.23
2024-02-16T03:47:43.060Z,87.03
2024-02-16T03:50:15.755Z,87.03
2024-02-16T03:52:43.668Z,86.95
2024-02-16T03:55:11.463Z,86.98
2024-02-16T03:57:39.517Z,86.87
2024-02-16T04:00:09.434Z,86.96
2024-02-16T04:02:37.979Z,87.02
2024-02-16T04:05:06.264Z,86.86
2024-02-16T04:07:35.595Z,87.24
2024-02-16T04:10:03.510Z,87.02
2024-02-16T04:12:31.639Z,87.06
2024-02-16T04:14:59.778Z,86.90
2024-02-16T04:17:27.649Z,87.12
2024-02-16T04:19:55.609Z,86.98
2024-02-16T04:22:23.485Z,87.00
2024-02-16T04:24:52.687Z,87.20
2024-02-16T04:27:20.568Z,87.10
2024-02-16T04:29:48.429Z,87.03
2024-02-16T04:32:16.234Z,87.13
2024-02-16T04:34:44.138Z,87.19
2024-02-16T04:37:12.016Z,87.05
2024-02-16T04:39:40.425Z,87.23
2024-02-16T04:42:09.620Z,87.17
2024-02-16T04:44:39.646Z,87.23
2024-02-16T04:47:07.891Z,87.20
2024-02-16T04:49:35.819Z,87.11
2024-02-16T04:52:03.802Z,87.00
2024-02-16T04:54:32.045Z,87.19
2024-02-16T04:56:59.919Z,87.14
2024-02-16T04:59:29.159Z,87.23
2024-02-16T05:01:57.383Z,87.07
2024-02-16T05:04:25.206Z,87.32
2024-02-16T05:06:58.556Z,87.16
2024-02-16T05:09:27.772Z,86.93
2024-02-16T05:11:55.905Z,87.28
2024-02-16T05:14:25.124Z,87.11
2024-02-16T05:16:55.981Z,87.22
2024-02-16T05:19:25.201Z,87.18
2024-02-16T05:21:53.004Z,87.16
2024-02-16T05:24:21.734Z,87.19
2024-02-16T05:26:49.643Z,87.24
2024-02-16T05:29:17.456Z,87.20
2024-02-16T05:31:45.243Z,87.13
2024-02-16T05:34:15.116Z,87.32
2024-02-16T05:36:43.108Z,87.38
2024-02-16T05:39:22.055Z,87.25
2024-02-16T05:41:50.503Z,87.22
2024-02-16T05:44:18.341Z,87.35
2024-02-16T05:46:46.897Z,87.26
2024-02-16T05:49:16.266Z,87.28
2024-02-16T05:52:01.209Z,87.25
2024-02-16T05:54:29.324Z,87.29
2024-02-16T05:56:57.269Z,87.25
2024-02-16T05:59:26.248Z,87.23
2024-02-16T06:01:54.093Z,87.10
2024-02-16T06:04:23.308Z,87.29
2024-02-16T06:06:51.417Z,87.31
2024-02-16T06:09:19.307Z,87.19
2024-02-16T06:11:47.464Z,87.31
2024-02-16T06:14:19.488Z,87.32
2024-02-16T06:16:48.343Z,87.44
2024-02-16T06:19:16.651Z,87.37
2024-02-16T06:21:45.871Z,87.32
2024-02-16T06:24:13.700Z,87.32
2024-02-16T06:26:42.976Z,87.20
2024-02-16T06:29:11.080Z,87.34
2024-02-16T06:31:38.877Z,87.34
2024-02-16T06:34:06.770Z,87.25
2024-02-16T06:36:34.767Z,87.39
2024-02-16T06:39:04.263Z,87.33
2024-02-16T06:41:32.209Z,87.30
2024-02-16T06:44:00.001Z,87.28
2024-02-16T06:46:28.682Z,87.33
2024-02-16T06:48:57.635Z,87.34
2024-02-16T06:51:25.819Z,87.38
2024-02-16T06:53:53.644Z,87.54
2024-02-16T06:56:23.375Z,87.44
2024-02-16T06:58:51.216Z,87.54
2024-02-16T07:01:19.542Z,87.63
2024-02-16T07:03:47.754Z,87.46
2024-02-16T07:06:15.795Z,87.39
2024-02-16T07:08:44.382Z,87.64
2024-02-16T07:11:14.063Z,87.46
2024-02-16T07:13:44.636Z,87.27
2024-02-16T07:16:12.462Z,87.57
2024-02-16T07:18:40.457Z,87.39
2024-02-16T07:21:08.493Z,87.39
2024-02-16T07:23:36.338Z,87.38
2024-02-16T07:26:07.203Z,87.34
2024-02-16T07:28:36.371Z,87.60
2024-02-16T07:31:06.010Z,87.58
2024-02-16T07:33:33.976Z,87.62
2024-02-16T07:36:01.905Z,87.52
2024-02-16T07:38:30.025Z,87.37
2024-02-16T07:40:57.926Z,87.32
2024-02-16T07:43:26.170Z,87.58
2024-02-16T07:45:55.123Z,87.64
2024-02-16T07:48:24.980Z,87.68
2024-02-16T07:50:53.006Z,87.26
2024-02-16T07:53:20.931Z,87.35
2024-02-16T07:55:48.730Z,87.34
2024-02-16T07:58:16.539Z,87.66
2024-02-16T08:00:44.495Z,87.58
2024-02-16T08:03:12.473Z,87.44
2024-02-16T08:05:41.696Z,87.26
2024-02-16T08:08:09.522Z,87.38
2024-02-16T08:10:37.538Z,87.08
2024-02-16T08:13:05.913Z,87.69
2024-02-16T08:15:33.930Z,87.10
2024-02-16T08:18:02.071Z,87.58
2024-02-16T08:20:30.009Z,87.74
2024-02-16T08:23:00.536Z,87.36
2024-02-16T08:25:29.208Z,87.38
2024-02-16T08:27:56.998Z,87.18
2024-02-16T08:30:26.217Z,87.77
2024-02-16T08:32:55.210Z,87.35
2024-02-16T08:35:23.915Z,87.40
2024-02-16T08:37:52.069Z,87.38
2024-02-16T08:40:21.320Z,87.83
2024-02-16T08:42:49.276Z,87.34
2024-02-16T08:45:18.731Z,87.41
2024-02-16T08:47:48.786Z,87.86
2024-02-16T08:50:18.604Z,87.82
2024-02-16T08:52:46.645Z,87.27
2024-02-16T08:55:14.646Z,87.39
2024-02-16T08:57:44.122Z,88.05
2024-02-16T09:00:13.264Z,87.60
2024-02-16T09:02:41.156Z,87.32
2024-02-16T09:05:10.921Z,87.61
2024-02-16T09:07:39.674Z,87.62
2024-02-16T09:10:09.131Z,87.48
2024-02-16T09:12:37.180Z,87.91
2024-02-16T09:15:07.176Z,87.80
2024-02-16T09:17:35.070Z,87.88
2024-02-16T09:20:05.495Z,87.28
2024-02-16T09:25:04.302Z,87.44
2024-02-16T09:27:32.883Z,87.45
2024-02-16T09:30:00.931Z,87.58
2024-02-16T09:32:30.136Z,87.93
2024-02-16T09:34:58.285Z,87.64
2024-02-16T09:37:26.245Z,87.40
2024-02-16T09:39:55.494Z,87.27
2024-02-16T09:42:27.315Z,87.80
2024-02-16T09:44:56.683Z,87.98
2024-02-16T09:47:26.000Z,87.32
2024-02-16T09:49:55.464Z,87.59
2024-02-16T09:52:24.439Z,87.26
2024-02-16T09:54:52.282Z,87.96
2024-02-16T09:57:20.524Z,88.06
2024-02-16T09:59:48.338Z,87.77
2024-02-16T10:02:16.162Z,87.31
2024-02-16T10:04:44.030Z,88.04
2024-02-16T10:07:14.656Z,87.67
2024-02-16T10:09:43.507Z,87.78
2024-02-16T10:12:12.228Z,87.42
2024-02-16T10:14:42.251Z,87.92
2024-02-16T10:17:10.817Z,88.13
2024-02-16T10:19:41.976Z,87.73
2024-02-16T10:22:11.720Z,87.82
2024-02-16T10:24:41.596Z,88.08
2024-02-16T10:27:17.143Z,87.64
2024-02-16T10:29:46.449Z,88.17
2024-02-16T10:32:14.808Z,88.14
2024-02-16T10:34:43.603Z,87.28
2024-02-16T10:37:12.343Z,87.59
2024-02-16T10:39:43.443Z,87.82
2024-02-16T10:42:12.618Z,87.81
2024-02-16T10:44:43.709Z,87.53
2024-02-16T10:47:11.699Z,87.47
2024-02-16T10:49:40.054Z,87.76
2024-02-16T10:52:09.348Z,87.85
2024-02-16T10:54:38.960Z,87.99
2024-02-16T10:57:11.714Z,87.70
2024-02-16T10:59:47.419Z,87.37
2024-02-16T11:02:16.215Z,88.10
2024-02-16T11:04:47.997Z,88.21
2024-02-16T11:07:19.093Z,88.33
2024-02-16T11:09:49.054Z,87.86
2024-02-16T11:12:18.440Z,88.14
2024-02-16T11:14:48.392Z,87.87
2024-02-16T11:17:17.446Z,87.49
2024-02-16T11:19:47.001Z,88.19
2024-02-16T11:22:18.510Z,88.03
2024-02-16T11:24:47.954Z,87.85
2024-02-16T11:27:20.632Z,87.79
2024-02-16T11:29:51.484Z,87.88
2024-02-16T11:32:21.540Z,87.45
2024-02-16T11:34:50.141Z,88.36
2024-02-16T11:37:18.546Z,87.96
2024-02-16T11:39:48.176Z,87.88
2024-02-16T11:42:21.901Z,87.58
2024-02-16T11:44:56.899Z,87.87
2024-02-16T11:47:29.005Z,87.90
2024-02-16T11:50:05.962Z,88.05
2024-02-16T11:52:34.284Z,87.96
2024-02-16T11:55:04.868Z,88.22
2024-02-16T11:57:33.417Z,88.33
2024-02-16T12:00:05.269Z,87.88
2024-02-16T12:02:33.090Z,88.18
2024-02-16T12:05:03.930Z,88.02
2024-02-16T12:07:34.424Z,87.62
2024-02-16T12:10:06.149Z,88.31
2024-02-16T12:12:34.861Z,88.03
2024-02-16T12:15:04.790Z,88.43
2024-02-16T12:17:32.696Z,87.70
2024-02-16T12:20:01.061Z,87.62
2024-02-16T12:22:29.166Z,88.38
2024-02-16T12:24:58.025Z,88.12
2024-02-16T12:27:26.992Z,87.62
2024-02-16T12:29:54.898Z,87.47
2024-02-16T12:32:24.118Z,87.84
2024-02-16T12:34:52.184Z,87.77
2024-02-16T12:37:20.213Z,88.26
2024-02-16T12:39:49.114Z,87.87
2024-02-16T12:42:17.140Z,87.91
2024-02-16T12:44:45.028Z,88.24
2024-02-16T12:47:12.817Z,88.03
2024-02-16T12:49:42.138Z,87.75
2024-02-16T12:52:10.104Z,88.22
2024-02-16T12:54:37.910Z,87.78
2024-02-16T12:57:05.794Z,88.10
2024-02-16T12:59:33.655Z,88.30
2024-02-16T13:02:03.791Z,88.35
2024-02-16T13:04:33.744Z,88.31
2024-02-16T13:07:03.123Z,88.06
2024-02-16T13:09:31.555Z,88.45
2024-02-16T13:11:59.825Z,88.02
2024-02-16T13:14:28.365Z,87.71
2024-02-16T13:16:56.235Z,88.33
2024-02-16T13:19:25.242Z,88.37
2024-02-16T13:21:54.061Z,87.55
2024-02-16T13:24:23.361Z,87.61
2024-02-16T13:26:51.428Z,87.79
2024-02-16T13:29:19.281Z,87.70
2024-02-16T13:31:47.238Z,88.06
2024-02-16T13:34:15.981Z,87.56
2024-02-16T13:36:44.041Z,88.20
2024-02-16T13:39:12.917Z,88.09
2024-02-16T13:41:42.242Z,87.87
2024-02-16T13:44:10.078Z,87.75
2024-02-16T13:46:37.893Z,88.64
2024-02-16T13:49:06.069Z,87.82
2024-02-16T13:51:34.339Z,88.35
2024-02-16T13:54:02.271Z,87.83
2024-02-16T13:56:30.037Z,87.77
2024-02-16T13:58:59.218Z,88.43
2024-02-16T14:01:27.256Z,88.00
2024-02-16T14:03:55.218Z,88.16
2024-02-16T14:06:23.320Z,88.08
2024-02-16T14:08:54.924Z,88.42
2024-02-16T14:11:23.536Z,87.77
2024-02-16T14:13:51.807Z,87.89
2024-02-16T14:16:21.008Z,88.15
2024-02-16T14:18:50.348Z,88.23
2024-02-16T14:21:18.284Z,88.42
2024-02-16T14:23:46.761Z,87.84
2024-02-16T14:26:14.564Z,88.49
2024-02-16T14:28:42.986Z,88.18
2024-02-16T14:31:11.153Z,88.43
2024-02-16T14:33:40.617Z,88.36
2024-02-16T14:36:10.644Z,88.32
2024-02-16T14:38:38.447Z,88.14
2024-02-16T14:41:06.875Z,87.97
2024-02-16T14:43:34.965Z,88.02
2024-02-16T14:46:05.364Z,88.19
2024-02-16T14:48:33.797Z,88.68
2024-02-16T14:51:03.657Z,88.33
2024-02-16T14:53:34.062Z,87.82
2024-02-16T14:56:02.397Z,88.60
2024-02-16T14:58:30.218Z,88.60
2024-02-16T15:00:58.345Z,88.07
2024-02-16T15:03:28.300Z,87.95
2024-02-16T15:05:56.200Z,88.21
2024-02-16T15:08:25.492Z,87.94
2024-02-16T15:10:53.412Z,88.72
2024-02-16T15:13:21.228Z,88.00
2024-02-16T15:15:49.177Z,88.45
2024-02-16T15:18:17.162Z,88.35
2024-02-16T15:20:45.273Z,88.38
2024-02-16T15:23:13.091Z,87.91
2024-02-16T15:25:42.218Z,88.72
2024-02-16T15:28:10.047Z,88.34
2024-02-16T15:30:38.098Z,88.33
2024-02-16T15:33:06.781Z,88.10
2024-02-16T15:35:34.970Z,88.46
2024-02-16T15:38:02.978Z,88.45
2024-02-16T15:40:30.795Z,88.32
2024-02-16T15:43:03.889Z,88.00
2024-02-16T15:45:32.156Z,88.75
2024-02-16T15:48:00.462Z,88.47
2024-02-16T15:50:31.407Z,88.04
2024-02-16T15:52:59.425Z,87.95
2024-02-16T15:55:27.287Z,88.54
2024-02-16T15:57:55.196Z,88.49
2024-02-16T16:00:25.378Z,87.98
2024-02-16T16:02:53.361Z,88.05
2024-02-16T16:05:21.204Z,88.02
2024-02-16T16:07:49.532Z,88.60
2024-02-16T16:10:18.547Z,88.17
2024-02-16T16:12:46.960Z,88.06
2024-02-16T16:15:15.252Z,88.84
2024-02-16T16:17:44.836Z,88.22
2024-02-16T16:20:14.420Z,88.08
2024-02-16T16:22:42.422Z,88.38
2024-02-16T16:25:10.766Z,88.32
2024-02-16T16:27:38.704Z,88.53
2024-02-16T16:30:09.318Z,88.54
2024-02-16T16:32:37.215Z,88.57
2024-02-16T16:35:07.818Z,88.44
2024-02-16T16:37:35.769Z,87.98
2024-02-16T16:40:03.948Z,88.46
2024-02-16T16:42:32.920Z,88.33
2024-02-16T16:45:00.938Z,88.26
2024-02-16T16:47:29.803Z,87.84
2024-02-16T16:49:58.200Z,88.02
2024-02-16T16:52:27.471Z,88.50
2024-02-16T16:54:55.400Z,88.52
2024-02-16T16:57:23.330Z,88.65
2024-02-16T16:59:51.244Z,88.46
2024-02-16T17:02:19.079Z,88.24
2024-02-16T17:04:47.082Z,88.25
2024-02-16T17:07:19.053Z,88.58
2024-02-16T17:09:48.405Z,88.58
2024-02-16T17:12:17.352Z,88.59
2024-02-16T17:14:45.185Z,88.49
2024-02-16T17:17:13.000Z,88.74
2024-02-16T17:19:40.885Z,88.09
2024-02-16T17:22:08.847Z,88.62
2024-02-16T17:24:36.814Z,88.71
2024-02-16T17:27:06.905Z,88.22
2024-02-16T17:29:35.126Z,88.19
2024-02-16T17:32:02.905Z,88.63
2024-02-16T17:34:30.881Z,88.64
2024-02-16T17:36:59.481Z,88.81
2024-02-16T17:39:27.501Z,88.37
2024-02-16T17:41:56.026Z,88.71
2024-02-16T17:44:25.273Z,88.81
2024-02-16T17:46:53.125Z,87.94
2024-02-16T17:49:21.029Z,88.59
2024-02-16T17:51:49.117Z,88.19
2024-02-16T17:54:17.443Z,88.62
2024-02-16T17:56:45.314Z,88.26
2024-02-16T17:59:13.249Z,88.65
2024-02-16T18:01:43.424Z,88.05
2024-02-16T18:04:11.301Z,88.17
2024-02-16T18:06:43.100Z,88.04
2024-02-16T18:09:12.855Z,88.55
2024-02-16T18:11:41.075Z,88.50
2024-02-16T18:14:10.444Z,88.22
2024-02-16T18:16:38.241Z,88.84
2024-02-16T18:19:08.173Z,87.97
2024-02-16T18:21:36.583Z,88.65
2024-02-16T18:24:04.928Z,88.49
2024-02-16T18:26:35.072Z,88.90
2024-02-16T18:29:02.900Z,88.66
2024-02-16T18:31:31.936Z,88.43
2024-02-16T18:34:00.084Z,88.18
2024-02-16T18:36:31.733Z,88.10
2024-02-16T18:39:00.435Z,88.87
2024-02-16T18:41:28.371Z,88.52
2024-02-16T18:43:56.272Z,88.65
2024-02-16T18:46:24.135Z,88.76
2024-02-16T18:48:52.232Z,88.20
2024-02-16T18:51:20.463Z,88.59
2024-02-16T18:53:49.832Z,88.85
2024-02-16T18:56:18.744Z,88.80
2024-02-16T18:58:46.787Z,88.25
2024-02-16T19:01:19.195Z,89.02
2024-02-16T19:03:47.594Z,88.49
2024-02-16T19:06:15.415Z,89.01
2024-02-16T19:08:45.829Z,88.67
2024-02-16T19:11:15.075Z,88.28
2024-02-16T19:13:43.450Z,88.49
2024-02-16T19:16:11.340Z,88.76
2024-02-16T19:18:39.413Z,88.32
2024-02-16T19:21:08.890Z,88.90
2024-02-16T19:23:37.269Z,88.72
2024-02-16T19:26:06.824Z,88.42
2024-02-16T19:28:39.652Z,88.89
2024-02-16T19:31:09.404Z,88.13
2024-02-16T19:33:37.693Z,88.54
2024-02-16T19:36:07.269Z,88.79
2024-02-16T19:38:36.923Z,89.17
2024-02-16T19:41:05.334Z,88.61
2024-02-16T19:43:33.448Z,88.53
2024-02-16T19:46:03.932Z,88.54
2024-02-16T19:48:32.781Z,89.12
2024-02-16T19:51:01.368Z,88.39
2024-02-16T19:53:29.572Z,88.50
2024-02-16T19:55:57.764Z,88.92
2024-02-16T19:58:25.965Z,89.01
2024-02-16T20:00:54.067Z,88.67
2024-02-16T20:03:24.596Z,88.45
2024-02-16T20:05:53.565Z,88.51
2024-02-16T20:08:22.469Z,88.88
2024-02-16T20:10:50.382Z,88.79
2024-02-16T20:13:18.372Z,88.58
2024-02-16T20:15:46.276Z,88.45
2024-02-16T20:18:18.685Z,88.39
2024-02-16T20:20:48.261Z,88.28
2024-02-16T20:23:18.024Z,88.90
2024-02-16T20:25:47.447Z,88.39
2024-02-16T20:28:15.271Z,88.88
2024-02-16T20:30:43.169Z,89.04
2024-02-16T20:33:11.184Z,88.91
2024-02-16T20:35:39.315Z,88.82
2024-02-16T20:38:08.566Z,89.05
2024-02-16T20:40:36.445Z,88.92
2024-02-16T20:43:04.280Z,88.93
2024-02-16T20:45:32.291Z,88.40
2024-02-16T20:48:01.108Z,88.91
2024-02-16T20:50:29.578Z,88.89
2024-02-16T20:52:57.466Z,88.89
2024-02-16T20:55:26.899Z,88.20
2024-02-16T20:57:54.793Z,89.10
2024-02-16T21:00:23.905Z,88.55
2024-02-16T21:02:54.245Z,88.94
2024-02-16T21:05:22.739Z,88.68
2024-02-16T21:07:50.561Z,88.71
2024-02-16T21:10:18.974Z,88.46
2024-02-16T21:12:48.207Z,88.55
2024-02-16T21:15:16.557Z,88.65
2024-02-16T21:17:44.542Z,88.84
2024-02-16T21:20:12.913Z,88.35
2024-02-16T21:22:41.044Z,88.46
2024-02-16T21:25:10.153Z,89.15
2024-02-16T21:27:38.211Z,88.64
2024-02-16T21:30:08.937Z,89.06
2024-02-16T21:32:36.856Z,88.98
2024-02-16T21:35:05.127Z,88.88
2024-02-16T21:37:33.208Z,89.05
2024-02-16T21:40:01.003Z,88.73
2024-02-16T21:42:28.960Z,88.75
2024-02-16T21:44:56.821Z,88.63
2024-02-16T21:47:25.990Z,88.61
2024-02-16T21:49:53.900Z,88.67
2024-02-16T21:52:21.850Z,88.32
2024-02-16T21:54:49.771Z,89.18
2024-02-16T21:57:17.636Z,88.49
2024-02-16T21:59:45.485Z,88.47
2024-02-16T22:02:13.936Z,88.78
2024-02-16T22:04:43.881Z,88.59
2024-02-16T22:07:12.427Z,89.21
2024-02-16T22:09:40.381Z,88.66
2024-02-16T22:12:08.905Z,88.61
2024-02-16T22:14:36.928Z,88.59
2024-02-16T22:17:05.660Z,88.99
2024-02-16T22:19:33.551Z,89.17
2024-02-16T22:22:04.282Z,89.33
2024-02-16T22:24:32.279Z,88.98
2024-02-16T22:27:00.176Z,88.64
2024-02-16T22:29:28.400Z,89.14
2024-02-16T22:32:04.091Z,88.81
2024-02-16T22:34:36.538Z,89.20
2024-02-16T22:37:05.865Z,89.22
2024-02-16T22:39:33.778Z,88.80
2024-02-16T22:42:01.686Z,89.01
2024-02-16T22:44:30.358Z,89.09
2024-02-16T22:46:58.210Z,89.26
2024-02-16T22:49:26.165Z,88.75
2024-02-16T22:51:54.421Z,88.65
2024-02-16T22:54:23.748Z,88.66
2024-02-16T22:56:51.810Z,89.20
2024-02-16T22:59:19.613Z,89.16
2024-02-16T23:01:47.498Z,88.64
2024-02-16T23:04:15.405Z,89.11
2024-02-16T23:06:43.554Z,89.05
2024-02-16T23:09:13.104Z,89.13
2024-02-16T23:11:45.086Z,89.14
2024-02-16T23:14:12.928Z,88.78
2024-02-16T23:16:40.893Z,89.44
2024-02-16T23:19:08.881Z,88.75
2024-02-16T23:21:36.813Z,88.91
2024-02-16T23:24:05.116Z,89.19
2024-02-16T23:26:32.963Z,88.97
2024-02-16T23:29:02.133Z,89.00
2024-02-16T23:31:30.818Z,88.60
2024-02-16T23:33:58.865Z,89.35
2024-02-16T23:36:26.800Z,89.34
2024-02-16T23:38:55.464Z,88.66
2024-02-16T23:41:24.990Z,88.98
2024-02-16T23:43:55.709Z,89.02
2024-02-16T23:46:26.387Z,89.33
2024-02-16T23:48:54.330Z,88.61
2024-02-16T23:51:22.255Z,89.06
2024-02-16T23:53:50.314Z,89.46
2024-02-16T23:56:18.182Z,89.17
2024-02-16T23:58:46.093Z,89.12
